Elon College, North Carolina
Current Conditions -  °F | °C
As of 1:54 AM on Friday 19 Dec 2014 (Local Time) from KBUY Reporting Station
Overcast Overcast  
Wind Chill: 39°   Ceiling: 6000
Heat Index: 39°   Visibility: 10mi
Dew Point: 31°   Wind: 0mph
Humidity: 73%   Direction: NA
Pressure: 30.09"   Gusts: NA
Location:  36.2189°N, 79.4807°W
Report Text: KBUY 190654Z AUTO 00000KT 10SM OVC060 04/M01 A3009 RMK AO2 SLP191 T00391006
Loading
Personal Weather Stations






























Interactive Weather Map New forecast layout! Learn more

10-Day Weather Forecast

Advertisements
Track Severe Weather on mobile